Time;durP1;ratioP1;P1;durP2;ratioP2;P2;SDS_P1;SDS_P2;PMS_P1;PMS_P2;Temp;Humidity;BMP_temperature;BMP_pressure;BME280_temperature;BME280_humidity;BME280_pressure;Samples;Min_cycle;Max_cycle;Signal;HPM_P1;HPM_P2
2022/03/25 00:00:05;;;;;;;22.92;13.75;;;;;;;0.76;57.23;93751.66;5093986;28;20416;-43
2022/03/25 00:02:30;;;;;;;23.17;15.05;;;;;;;0.82;57.39;93742.81;5093763;28;20111;-44
2022/03/25 00:04:56;;;;;;;27.20;15.70;;;;;;;0.84;56.79;93741.13;5093965;28;20012;-44
2022/03/25 00:07:22;;;;;;;48.72;25.05;;;;;;;0.88;57.45;93740.91;5093675;28;20532;-44
2022/03/25 00:09:47;;;;;;;50.97;27.95;;;;;;;0.83;57.76;93741.56;5094372;28;20020;-43
2022/03/25 00:12:13;;;;;;;42.47;26.15;;;;;;;0.80;56.64;93739.84;5114201;27;20043;-43
2022/03/25 00:14:38;;;;;;;38.78;20.65;;;;;;;0.50;57.56;93725.66;5113985;28;20115;-44
2022/03/25 00:17:04;;;;;;;34.20;20.23;;;;;;;0.48;58.75;93725.38;5113701;28;20043;-43
2022/03/25 00:19:29;;;;;;;26.23;15.15;;;;;;;0.51;57.76;93721.72;5113901;28;20024;-44
2022/03/25 00:21:55;;;;;;;35.53;20.30;;;;;;;0.57;57.88;93722.53;5114040;28;20023;-43
2022/03/25 00:24:20;;;;;;;32.33;18.42;;;;;;;0.34;58.42;93724.25;5114018;28;20102;-44
2022/03/25 00:26:47;;;;;;;70.80;33.85;;;;;;;0.07;58.77;93723.91;5113678;28;20404;-43
2022/03/25 00:29:13;;;;;;;43.65;23.63;;;;;;;-0.08;59.17;93721.25;5113681;28;20016;-44
2022/03/25 00:31:39;;;;;;;46.42;24.65;;;;;;;-0.05;59.83;93717.59;5114047;28;20144;-43
2022/03/25 00:34:04;;;;;;;32.80;17.33;;;;;;;-0.04;59.38;93722.56;5113402;28;20614;-43
2022/03/25 00:36:29;;;;;;;54.42;29.90;;;;;;;-0.27;59.77;93723.47;5113533;28;20020;-45
2022/03/25 00:38:55;;;;;;;31.33;16.27;;;;;;;-0.03;59.16;93718.63;5113777;28;20031;-46
2022/03/25 00:41:22;;;;;;;21.88;11.73;;;;;;;0.20;58.52;93722.34;5099476;28;20059;-45
2022/03/25 00:43:48;;;;;;;39.58;18.50;;;;;;;0.16;58.13;93721.06;5092986;28;20020;-45
2022/03/25 00:46:15;;;;;;;21.50;13.75;;;;;;;-0.13;59.41;93705.66;5107631;28;20054;-46
2022/03/25 00:48:42;;;;;;;24.60;14.25;;;;;;;-0.29;60.16;93717.78;5113308;28;20416;-47
2022/03/25 00:51:08;;;;;;;26.90;14.35;;;;;;;-0.12;59.58;93723.44;5113520;28;20031;-45
2022/03/25 00:53:33;;;;;;;29.83;17.42;;;;;;;-0.27;60.37;93725.44;5113471;28;20189;-44
2022/03/25 00:56:03;;;;;;;20.48;10.70;;;;;;;-0.20;59.64;93723.09;5102786;28;20111;-45
2022/03/25 00:58:29;;;;;;;21.13;11.32;;;;;;;0.06;59.18;93727.84;5092143;28;20044;-44
2022/03/25 01:00:55;;;;;;;28.25;15.20;;;;;;;-0.11;59.61;93725.66;5092945;28;20077;-44
2022/03/25 01:03:21;;;;;;;25.75;14.20;;;;;;;-0.12;59.27;93735.03;5092938;28;20332;-45
2022/03/25 01:05:47;;;;;;;24.67;12.57;;;;;;;-0.47;59.88;93733.53;5092840;28;20017;-46
2022/03/25 01:08:14;;;;;;;21.02;12.63;;;;;;;-0.52;60.81;93726.06;5092902;28;20332;-45
2022/03/25 01:10:40;;;;;;;28.05;14.88;;;;;;;-0.16;60.17;93726.34;5100279;28;20019;-44
2022/03/25 01:13:06;;;;;;;31.25;14.15;;;;;;;-0.33;60.50;93714.53;5112850;28;20034;-45
2022/03/25 01:15:32;;;;;;;23.75;14.13;;;;;;;-0.63;60.44;93740.22;5112664;28;20055;-45
2022/03/25 01:17:57;;;;;;;24.58;12.18;;;;;;;-0.49;60.05;93731.28;5113049;28;20039;-45
2022/03/25 01:20:23;;;;;;;21.98;13.50;;;;;;;-0.50;60.49;93701.94;5112980;28;20451;-46
2022/03/25 01:22:49;;;;;;;23.52;12.55;;;;;;;-0.37;60.69;93715.94;5112933;28;20049;-45
2022/03/25 01:25:15;;;;;;;29.50;13.45;;;;;;;-0.43;60.88;93723.22;5112913;28;20023;-44
2022/03/25 01:27:41;;;;;;;25.25;13.50;;;;;;;-0.76;61.11;93724.22;5112532;28;20031;-45
2022/03/25 01:30:07;;;;;;;18.52;11.82;;;;;;;-0.49;60.36;93723.16;5112773;28;20023;-45
2022/03/25 01:32:34;;;;;;;21.70;11.57;;;;;;;-0.48;60.29;93718.47;5112766;28;20034;-44
2022/03/25 01:34:59;;;;;;;17.13;10.93;;;;;;;-0.52;60.82;93718.66;5112331;28;20052;-45
2022/03/25 01:37:25;;;;;;;16.70;10.95;;;;;;;-0.80;62.34;93712.81;5112697;28;20545;-44
2022/03/25 01:39:51;;;;;;;18.77;10.95;;;;;;;-0.75;61.74;93719.56;5112126;28;20024;-44
2022/03/25 01:42:17;;;;;;;19.63;11.65;;;;;;;-0.59;61.58;93716.34;5099068;28;20035;-45
2022/03/25 01:44:43;;;;;;;20.67;13.00;;;;;;;-0.64;60.94;93708.88;5092121;28;20028;-44
2022/03/25 01:47:12;;;;;;;27.05;13.38;;;;;;;-0.65;61.69;93718.22;5091754;28;20013;-48
2022/03/25 01:49:37;;;;;;;20.75;11.43;;;;;;;-0.61;61.52;93716.09;5092046;28;20024;-44
2022/03/25 01:52:03;;;;;;;30.58;12.57;;;;;;;-1.11;62.18;93717.25;5091942;28;20056;-45
2022/03/25 01:54:31;;;;;;;21.20;11.27;;;;;;;-1.07;62.88;93720.50;5090743;28;20019;-44
2022/03/25 01:57:02;;;;;;;22.25;11.98;;;;;;;-0.97;62.12;93713.78;5110183;28;20098;-44
2022/03/25 01:59:28;;;;;;;22.38;12.80;;;;;;;-0.96;62.49;93723.41;5112225;28;20416;-45
2022/03/25 02:01:54;;;;;;;18.75;10.25;;;;;;;-0.86;62.27;93716.66;5111776;28;20023;-45
2022/03/25 02:04:20;;;;;;;23.05;11.60;;;;;;;-0.99;62.11;93725.09;5112147;28;20444;-44
2022/03/25 02:06:46;;;;;;;22.55;13.25;;;;;;;-0.82;61.96;93723.38;5111953;28;20016;-44
2022/03/25 02:09:12;;;;;;;25.27;13.27;;;;;;;-1.00;62.73;93718.19;5110211;28;20032;-46
2022/03/25 02:11:37;;;;;;;28.20;12.52;;;;;;;-0.95;62.21;93703.97;5111873;28;20061;-45
2022/03/25 02:14:03;;;;;;;20.30;11.38;;;;;;;-0.78;61.34;93715.81;5111904;28;20022;-44
2022/03/25 02:16:36;;;;;;;19.20;11.30;;;;;;;-0.88;62.09;93719.09;5111585;28;20019;-45
2022/03/25 02:19:02;;;;;;;16.95;10.32;;;;;;;-0.95;62.57;93711.34;5110449;28;20070;-47
2022/03/25 02:21:29;;;;;;;23.38;11.90;;;;;;;-1.05;62.45;93699.88;5111476;28;20461;-45
2022/03/25 02:23:54;;;;;;;21.08;11.13;;;;;;;-0.80;62.11;93718.25;5111326;28;20143;-45
2022/03/25 02:26:21;;;;;;;27.13;12.60;;;;;;;-0.77;61.76;93721.97;5111483;28;20061;-45
2022/03/25 02:28:46;;;;;;;25.02;13.50;;;;;;;-0.97;61.72;93717.22;5110098;28;20020;-46
2022/03/25 02:31:12;;;;;;;24.30;12.88;;;;;;;-1.42;63.40;93719.63;5111362;27;20034;-44
2022/03/25 02:33:37;;;;;;;23.38;13.40;;;;;;;-1.40;63.37;93719.91;5111616;28;20027;-44
2022/03/25 02:36:03;;;;;;;28.92;14.13;;;;;;;-1.22;63.65;93719.75;5110947;28;20542;-45
2022/03/25 02:38:29;;;;;;;20.48;11.70;;;;;;;-1.30;63.60;93713.94;5098518;28;20497;-44
2022/03/25 02:40:54;;;;;;;17.25;10.75;;;;;;;-1.20;62.66;93714.63;5090428;28;20020;-44
2022/03/25 02:43:20;;;;;;;19.90;11.32;;;;;;;-1.19;62.50;93711.44;5090831;28;20032;-44
2022/03/25 02:45:45;;;;;;;14.85;8.98;;;;;;;-1.06;63.11;93717.31;5090985;28;20027;-46
2022/03/25 02:48:11;;;;;;;15.45;9.45;;;;;;;-1.14;62.35;93716.22;5090731;28;20024;-44
2022/03/25 02:50:37;;;;;;;23.17;10.18;;;;;;;-1.27;62.83;93714.97;5090938;28;20098;-44
2022/03/25 02:53:03;;;;;;;31.40;13.35;;;;;;;-1.18;62.54;93729.19;5090574;28;20038;-46
2022/03/25 02:55:28;;;;;;;24.60;12.45;;;;;;;-1.15;62.41;93722.81;5096539;28;20027;-44
2022/03/25 02:57:54;;;;;;;30.10;13.38;;;;;;;-1.45;64.02;93731.41;5110815;28;20020;-44
2022/03/25 03:00:21;;;;;;;28.27;15.95;;;;;;;-1.21;62.66;93710.44;5110917;28;20031;-44
2022/03/25 03:02:47;;;;;;;29.67;14.70;;;;;;;-1.35;63.16;93733.56;5110780;28;20019;-45
2022/03/25 03:05:13;;;;;;;25.35;13.45;;;;;;;-1.54;64.04;93730.25;5110756;28;20496;-45
2022/03/25 03:07:39;;;;;;;36.47;16.67;;;;;;;-1.59;63.77;93728.22;5111088;28;20051;-46
2022/03/25 03:10:05;;;;;;;27.92;14.02;;;;;;;-1.37;64.18;93733.28;5110917;28;20500;-44
2022/03/25 03:12:32;;;;;;;22.15;11.32;;;;;;;-1.26;63.61;93736.22;5110726;28;20020;-45
2022/03/25 03:14:58;;;;;;;33.47;15.75;;;;;;;-1.29;63.02;93733.66;5110742;28;20019;-44
2022/03/25 03:17:24;;;;;;;44.13;21.38;;;;;;;-1.21;63.17;93729.38;5110909;28;20020;-44
2022/03/25 03:19:50;;;;;;;40.63;20.23;;;;;;;-1.40;63.20;93730.75;5109986;28;20634;-44
2022/03/25 03:22:17;;;;;;;41.55;20.40;;;;;;;-1.60;63.90;93718.59;5110593;28;20451;-45
2022/03/25 03:24:43;;;;;;;31.45;16.77;;;;;;;-1.54;63.56;93737.66;5110813;28;20023;-45
2022/03/25 03:27:09;;;;;;;36.85;17.13;;;;;;;-1.83;63.49;93681.50;5110581;28;20408;-45
2022/03/25 03:29:35;;;;;;;30.73;17.45;;;;;;;-1.58;63.55;93739.78;5110779;28;20020;-46
2022/03/25 03:32:01;;;;;;;28.30;13.98;;;;;;;-1.83;64.17;93729.44;5110809;28;20084;-44
2022/03/25 03:34:26;;;;;;;37.40;18.60;;;;;;;-1.79;64.18;93736.19;5100098;28;20044;-45
2022/03/25 03:36:52;;;;;;;32.95;16.30;;;;;;;-1.82;65.29;93739.06;5090032;28;20021;-45
2022/03/25 03:39:17;;;;;;;35.63;15.32;;;;;;;-1.80;64.71;93734.66;5090335;28;20024;-44
2022/03/25 03:41:43;;;;;;;33.80;17.58;;;;;;;-1.80;64.42;93731.97;5089777;28;20398;-45
2022/03/25 03:44:08;;;;;;;44.92;22.23;;;;;;;-1.68;63.91;93741.81;5090599;28;20428;-44
2022/03/25 03:46:34;;;;;;;42.30;20.00;;;;;;;-1.99;65.35;93724.47;5090352;28;20012;-45
2022/03/25 03:49:00;;;;;;;43.58;18.48;;;;;;;-2.00;66.33;93723.72;5090587;28;20016;-45
2022/03/25 03:51:25;;;;;;;44.85;21.20;;;;;;;-1.69;64.42;93731.47;5089972;28;20046;-44
2022/03/25 03:53:50;;;;;;;41.42;20.27;;;;;;;-1.76;64.94;93724.44;5089861;28;20089;-46
2022/03/25 03:56:16;;;;;;;42.08;19.15;;;;;;;-1.89;65.52;93726.66;5102496;28;20027;-44
2022/03/25 03:58:41;;;;;;;38.38;18.25;;;;;;;-2.04;66.16;93725.84;5110223;28;20023;-44
2022/03/25 04:01:07;;;;;;;36.33;17.20;;;;;;;-1.87;65.55;93718.81;5110276;28;20026;-44
2022/03/25 04:03:32;;;;;;;38.00;19.08;;;;;;;-2.16;65.55;93697.06;5109056;28;20030;-45
2022/03/25 04:05:58;;;;;;;29.63;15.68;;;;;;;-1.95;65.71;93719.63;5110153;28;20016;-45
2022/03/25 04:08:24;;;;;;;25.63;13.77;;;;;;;-1.88;64.87;93728.13;5110495;28;20023;-45
2022/03/25 04:10:50;;;;;;;31.50;15.45;;;;;;;-1.91;64.20;93718.25;5110433;28;20404;-44
2022/03/25 04:13:15;;;;;;;42.40;18.20;;;;;;;-2.02;64.99;93730.78;5110145;28;20023;-45
2022/03/25 04:15:40;;;;;;;38.20;17.70;;;;;;;-1.96;64.10;93718.88;5110046;28;20069;-44
2022/03/25 04:18:06;;;;;;;32.35;16.92;;;;;;;-1.93;64.33;93728.78;5110286;28;20019;-45
2022/03/25 04:20:32;;;;;;;38.67;17.02;;;;;;;-2.02;64.92;93725.38;5110107;28;20023;-45
2022/03/25 04:22:57;;;;;;;53.35;21.00;;;;;;;-2.10;65.36;93730.38;5110329;28;20016;-45
2022/03/25 04:25:23;;;;;;;49.90;22.55;;;;;;;-2.06;65.31;93727.50;5110309;28;20012;-45
2022/03/25 04:27:56;;;;;;;45.75;21.65;;;;;;;-2.17;65.62;93722.63;5109922;28;20027;-44
2022/03/25 04:30:23;;;;;;;45.33;22.23;;;;;;;-2.28;65.26;93725.09;5102648;28;20035;-44
2022/03/25 04:32:49;;;;;;;39.50;19.67;;;;;;;-2.32;66.28;93721.81;5092811;28;20024;-44
2022/03/25 04:35:14;;;;;;;32.33;17.80;;;;;;;-2.50;65.69;93684.06;5092909;28;20051;-44
2022/03/25 04:37:40;;;;;;;45.00;23.63;;;;;;;-2.06;64.88;93722.84;5093245;28;20239;-44
2022/03/25 04:40:07;;;;;;;40.42;21.30;;;;;;;-2.06;65.25;93730.97;5092429;28;20020;-44
2022/03/25 04:42:32;;;;;;;42.67;21.63;;;;;;;-2.15;65.58;93735.69;5093333;28;20020;-46
2022/03/25 04:44:58;;;;;;;48.40;26.27;;;;;;;-2.09;66.09;93734.59;5093015;28;20063;-45
2022/03/25 04:47:23;;;;;;;51.70;27.02;;;;;;;-2.12;66.03;93730.09;5092958;28;20016;-45
2022/03/25 04:49:48;;;;;;;70.20;29.10;;;;;;;-1.98;65.83;93729.41;5092920;28;20020;-45
2022/03/25 04:52:15;;;;;;;56.60;26.27;;;;;;;-1.80;65.14;93731.97;5093114;28;20027;-46
2022/03/25 04:54:40;;;;;;;48.30;23.17;;;;;;;-1.70;64.64;93721.84;5093139;28;20027;-44
2022/03/25 04:57:05;;;;;;;36.45;19.33;;;;;;;-1.92;66.19;93735.69;5112661;28;20024;-44
2022/03/25 04:59:31;;;;;;;42.40;19.70;;;;;;;-2.13;67.31;93734.00;5113181;28;20020;-45
2022/03/25 05:01:56;;;;;;;36.22;21.83;;;;;;;-2.01;66.74;93734.97;5113051;28;20015;-44
2022/03/25 05:04:22;;;;;;;34.42;22.38;;;;;;;-1.81;66.37;93730.50;5113001;28;20027;-45
2022/03/25 05:06:47;;;;;;;44.53;25.67;;;;;;;-1.78;66.23;93740.41;5113224;27;20019;-45
2022/03/25 05:09:13;;;;;;;43.17;25.13;;;;;;;-1.61;65.66;93733.34;5113038;28;20167;-44
2022/03/25 05:11:39;;;;;;;43.17;24.08;;;;;;;-1.47;65.17;93734.56;5113046;28;20031;-45
2022/03/25 05:14:05;;;;;;;41.65;21.77;;;;;;;-1.41;64.74;93738.16;5113172;28;20023;-45
2022/03/25 05:16:30;;;;;;;42.95;22.60;;;;;;;-1.18;63.61;93718.34;5113068;28;20401;-45
2022/03/25 05:18:56;;;;;;;49.13;22.00;;;;;;;-0.87;63.20;93736.88;5112663;28;20031;-44
2022/03/25 05:21:21;;;;;;;37.53;20.42;;;;;;;-0.68;62.64;93734.69;5112743;28;20083;-44
2022/03/25 05:23:46;;;;;;;40.85;21.10;;;;;;;-0.65;62.69;93742.63;5112815;28;20077;-45
2022/03/25 05:26:12;;;;;;;73.25;36.55;;;;;;;-0.42;62.06;93741.00;5108706;28;20020;-45
2022/03/25 05:28:37;;;;;;;81.53;42.63;;;;;;;-0.30;61.15;93735.25;5092451;28;20509;-46
2022/03/25 05:31:03;;;;;;;87.65;39.55;;;;;;;-0.27;62.07;93734.34;5092010;28;20109;-45
2022/03/25 05:33:29;;;;;;;88.90;45.22;;;;;;;-0.02;60.10;93741.06;5092377;28;20019;-45
2022/03/25 05:35:54;;;;;;;85.43;43.25;;;;;;;0.12;61.38;93739.53;5091701;28;20439;-45
2022/03/25 05:38:20;;;;;;;85.05;44.03;;;;;;;0.43;60.02;93729.56;5092034;28;20020;-45
2022/03/25 05:40:45;;;;;;;81.18;39.17;;;;;;;0.52;60.19;93739.53;5091245;28;20020;-46
2022/03/25 05:43:11;;;;;;;82.57;42.40;;;;;;;0.61;60.33;93729.25;5091579;28;20039;-46
2022/03/25 05:45:37;;;;;;;84.53;43.08;;;;;;;1.14;59.15;93723.34;5092057;28;20022;-46
2022/03/25 05:48:03;;;;;;;81.70;43.30;;;;;;;1.51;57.82;93731.56;5092002;28;20024;-46
2022/03/25 05:50:28;;;;;;;78.13;40.03;;;;;;;1.86;57.06;93726.63;5091988;28;20040;-46
2022/03/25 05:52:54;;;;;;;73.10;40.35;;;;;;;2.32;55.14;93720.19;5091711;28;20509;-45
2022/03/25 05:55:20;;;;;;;61.90;36.33;;;;;;;2.57;55.25;93727.44;5096556;28;20405;-45
2022/03/25 05:57:46;;;;;;;51.72;26.67;;;;;;;3.14;53.32;93718.94;5111901;27;20497;-45
2022/03/25 06:00:14;;;;;;;44.33;18.17;;;;;;;3.28;51.18;93724.13;5111897;27;20066;-44
2022/03/25 06:02:43;;;;;;;35.03;16.08;;;;;;;3.79;50.98;93718.16;5111063;28;20031;-46
2022/03/25 06:05:09;;;;;;;32.88;15.73;;;;;;;4.26;50.50;93730.03;5112162;27;20062;-46
2022/03/25 06:07:39;;;;;;;53.35;26.27;;;;;;;5.07;47.52;93715.00;5111759;28;20046;-46
2022/03/25 06:10:07;;;;;;;47.58;25.70;;;;;;;5.94;45.80;93723.09;5111688;28;20055;-44
2022/03/25 06:12:33;;;;;;;45.42;25.08;;;;;;;6.42;45.37;93716.88;5111676;28;20019;-47
2022/03/25 06:14:58;;;;;;;52.28;26.20;;;;;;;7.02;43.44;93723.63;5111571;28;20058;-45
2022/03/25 06:17:24;;;;;;;25.92;17.23;;;;;;;7.69;42.14;93717.22;5111494;28;20028;-46
2022/03/25 06:19:49;;;;;;;30.60;17.27;;;;;;;8.62;40.04;93711.34;5111495;28;20031;-45
2022/03/25 06:22:15;;;;;;;30.85;18.70;;;;;;;9.33;38.11;93714.63;5109349;28;20054;-48
2022/03/25 06:24:40;;;;;;;32.63;19.20;;;;;;;9.74;37.79;93711.19;5091350;28;20097;-45
2022/03/25 06:27:06;;;;;;;32.45;18.55;;;;;;;10.21;37.17;93714.59;5090994;28;20117;-45
2022/03/25 06:29:31;;;;;;;43.47;20.42;;;;;;;11.11;34.32;93705.41;5091058;28;20059;-45
2022/03/25 06:31:56;;;;;;;37.10;20.95;;;;;;;11.86;33.76;93708.41;5090976;28;20031;-44
2022/03/25 06:34:23;;;;;;;41.97;24.23;;;;;;;12.32;32.98;93698.13;5091048;28;20048;-44
2022/03/25 06:36:49;;;;;;;50.85;26.92;;;;;;;13.09;32.65;93708.53;5091104;28;20025;-45
2022/03/25 06:39:14;;;;;;;34.90;21.23;;;;;;;14.01;30.24;93704.06;5090871;28;20028;-46
2022/03/25 06:41:40;;;;;;;35.60;23.88;;;;;;;15.03;28.95;93706.34;5090506;28;20107;-45
2022/03/25 06:44:06;;;;;;;39.05;25.85;;;;;;;15.99;28.17;93691.09;5090718;28;20024;-46
2022/03/25 06:46:32;;;;;;;42.20;28.30;;;;;;;14.93;28.22;93700.72;5091045;28;20027;-46
2022/03/25 06:48:58;;;;;;;35.38;15.68;;;;;;;15.04;28.03;93675.22;5089408;28;20516;-46
2022/03/25 06:51:23;;;;;;;23.23;11.48;;;;;;;15.28;28.03;93697.94;5090995;28;20050;-45
2022/03/25 06:53:49;;;;;;;18.17;10.68;;;;;;;16.14;26.76;93687.34;5090791;28;20052;-46
2022/03/25 06:56:15;;;;;;;16.92;9.90;;;;;;;17.01;23.64;93684.28;5102445;28;20490;-42
2022/03/25 06:58:41;;;;;;;15.00;9.75;;;;;;;17.24;23.07;93679.00;5111186;28;20100;-43
2022/03/25 07:01:06;;;;;;;16.27;10.35;;;;;;;17.09;24.18;93659.03;5109985;28;20027;-46
2022/03/25 07:03:33;;;;;;;17.40;10.80;;;;;;;18.23;23.07;93683.31;5110504;28;20489;-45
2022/03/25 07:06:02;;;;;;;24.10;15.38;;;;;;;18.21;21.47;93685.22;5111007;28;20145;-45
2022/03/25 07:08:29;;;;;;;46.60;12.80;;;;;;;19.23;22.49;93663.50;5111113;28;20023;-42
2022/03/25 07:10:55;;;;;;;23.77;13.80;;;;;;;19.59;21.68;93683.41;5110597;28;20023;-43
2022/03/25 07:13:21;;;;;;;19.95;12.55;;;;;;;19.87;20.26;93694.94;5110507;28;20034;-42
2022/03/25 07:15:46;;;;;;;16.63;11.68;;;;;;;20.62;19.88;93672.31;5110733;28;20028;-43
2022/03/25 07:18:11;;;;;;;20.58;10.20;;;;;;;21.43;18.28;93680.66;5110654;28;20023;-42
2022/03/25 07:20:37;;;;;;;15.38;8.55;;;;;;;22.13;17.08;93673.41;5090416;28;20036;-42
2022/03/25 07:23:02;;;;;;;18.33;8.82;;;;;;;22.93;16.61;93673.47;5090525;28;20109;-42
2022/03/25 07:25:30;;;;;;;16.27;8.60;;;;;;;23.25;16.28;93680.75;5089010;28;20092;-42
2022/03/25 07:27:55;;;;;;;14.15;9.15;;;;;;;23.83;16.20;93682.97;5090194;28;20032;-41
2022/03/25 07:30:20;;;;;;;11.38;9.18;;;;;;;24.47;15.25;93676.88;5090166;28;20036;-42
2022/03/25 07:32:47;;;;;;;15.10;9.98;;;;;;;24.83;14.53;93679.28;5090464;28;20020;-43
2022/03/25 07:35:12;;;;;;;22.52;10.70;;;;;;;25.18;14.53;93667.41;5089951;28;20044;-42
2022/03/25 07:37:39;;;;;;;16.65;8.90;;;;;;;24.88;14.70;93676.63;5090451;28;20124;-44
2022/03/25 07:40:06;;;;;;;16.10;8.63;;;;;;;25.38;14.34;93678.84;5089440;28;20420;-44
2022/03/25 07:42:32;;;;;;;12.20;8.85;;;;;;;26.03;13.31;93668.84;5090076;28;20378;-45
2022/03/25 07:44:57;;;;;;;13.15;8.95;;;;;;;26.49;13.21;93672.81;5090239;28;20043;-42
2022/03/25 07:47:23;;;;;;;13.63;9.65;;;;;;;26.37;12.98;93674.44;5090018;28;20474;-43
2022/03/25 07:49:48;;;;;;;13.20;9.20;;;;;;;25.67;13.09;93675.13;5089905;28;20024;-41
2022/03/25 07:52:15;;;;;;;10.60;9.00;;;;;;;25.81;13.16;93681.38;5090239;28;20127;-42
2022/03/25 07:54:41;;;;;;;13.75;9.15;;;;;;;26.44;12.88;93684.63;5089917;28;20157;-44
2022/03/25 07:57:07;;;;;;;15.27;9.18;;;;;;;27.18;12.36;93669.72;5109550;28;20031;-42
2022/03/25 07:59:32;;;;;;;23.90;9.85;;;;;;;27.81;12.32;93673.34;5110581;28;20031;-44
2022/03/25 08:01:58;;;;;;;16.73;10.57;;;;;;;28.27;11.70;93674.19;5110151;28;20031;-44
2022/03/25 08:04:24;;;;;;;11.18;9.93;;;;;;;28.31;11.89;93666.53;5110173;28;20110;-43
2022/03/25 08:06:53;;;;;;;16.17;10.27;;;;;;;28.54;11.95;93679.31;5111962;28;20023;-43
2022/03/25 08:09:18;;;;;;;15.18;11.23;;;;;;;28.27;11.53;93682.69;5114025;28;20027;-43
2022/03/25 08:11:47;;;;;;;16.17;11.35;;;;;;;26.17;12.21;93677.94;5113936;28;20032;-43
2022/03/25 08:14:13;;;;;;;22.98;10.65;;;;;;;26.96;11.58;93670.34;5114371;28;20048;-44
2022/03/25 08:16:39;;;;;;;13.48;11.35;;;;;;;26.41;11.82;93663.28;5095482;28;20036;-42
2022/03/25 08:19:06;;;;;;;15.73;10.85;;;;;;;25.45;12.64;93678.47;5093466;28;20032;-43
2022/03/25 08:21:32;;;;;;;14.00;10.15;;;;;;;24.65;13.45;93669.22;5093800;28;20073;-42
2022/03/25 08:29:25;;;;;;;25.13;11.63;;;;;;;23.39;13.84;93664.56;5093671;28;20096;-41
2022/03/25 08:31:51;;;;;;;15.45;9.93;;;;;;;23.74;14.23;93669.81;5093536;28;20036;-42
2022/03/25 08:34:16;;;;;;;16.40;9.88;;;;;;;23.42;14.11;93660.50;5092978;28;20043;-42
2022/03/25 08:36:43;;;;;;;12.68;8.75;;;;;;;23.70;14.30;93681.63;5093493;28;20036;-43
2022/03/25 08:39:09;;;;;;;14.40;9.70;;;;;;;23.13;13.86;93663.25;5093386;28;20028;-43
2022/03/25 08:41:35;;;;;;;15.75;9.55;;;;;;;23.11;15.11;93665.94;5092494;28;20028;-41
2022/03/25 08:44:00;;;;;;;28.13;10.07;;;;;;;22.94;14.75;93678.47;5093220;28;20039;-43
2022/03/25 08:46:26;;;;;;;16.02;10.23;;;;;;;23.67;14.73;93674.44;5093024;28;20140;-43
2022/03/25 08:48:51;;;;;;;17.70;11.38;;;;;;;24.13;14.38;93675.97;5092947;28;20039;-42
2022/03/25 08:51:17;;;;;;;18.52;13.30;;;;;;;24.04;13.51;93674.88;5093195;28;20028;-45
2022/03/25 08:53:43;;;;;;;19.85;13.52;;;;;;;23.83;14.08;93666.78;5092928;28;20516;-41
2022/03/25 08:56:09;;;;;;;24.30;12.52;;;;;;;23.76;13.84;93679.13;5104331;28;20073;-41
2022/03/25 08:58:35;;;;;;;25.45;14.57;;;;;;;24.05;13.85;93681.25;5113198;28;20165;-42
2022/03/25 09:01:01;;;;;;;13.45;9.30;;;;;;;23.76;13.55;93664.28;5113081;28;20496;-45
2022/03/25 09:03:26;;;;;;;13.32;9.32;;;;;;;23.46;13.80;93674.81;5113159;28;20129;-41
2022/03/25 09:05:52;;;;;;;11.25;8.95;;;;;;;23.69;14.21;93688.63;5113014;27;20495;-43
2022/03/25 09:08:18;;;;;;;21.83;10.10;;;;;;;23.24;15.08;93687.72;5112951;28;20032;-43
2022/03/25 09:10:44;;;;;;;13.23;8.93;;;;;;;23.25;14.38;93678.69;5112848;28;20076;-44
2022/03/25 09:13:11;;;;;;;16.08;10.45;;;;;;;23.14;14.34;93692.88;5092447;28;20485;-43
2022/03/25 09:15:37;;;;;;;16.33;8.75;;;;;;;23.02;14.87;93683.81;5092632;28;20479;-42
2022/03/25 09:18:02;;;;;;;18.48;11.32;;;;;;;23.15;15.24;93680.25;5091344;28;20031;-42
2022/03/25 09:20:28;;;;;;;15.70;10.57;;;;;;;23.66;14.59;93689.91;5092330;28;20324;-44
2022/03/25 09:22:54;;;;;;;13.82;9.18;;;;;;;24.34;14.60;93697.44;5092295;28;20169;-43
2022/03/25 09:25:20;;;;;;;23.23;8.88;;;;;;;23.76;14.49;93692.47;5092474;28;20028;-43
2022/03/25 09:27:46;;;;;;;15.77;9.10;;;;;;;24.35;13.88;93688.31;5092472;28;20028;-44
2022/03/25 09:30:13;;;;;;;17.83;13.07;;;;;;;24.54;14.10;93690.63;5092137;28;20031;-43
2022/03/25 09:32:38;;;;;;;17.52;11.35;;;;;;;24.35;13.26;93690.41;5092090;28;20490;-43
2022/03/25 09:35:10;;;;;;;13.02;10.45;;;;;;;24.56;13.00;93684.34;5092030;28;20106;-43
2022/03/25 09:37:44;;;;;;;16.27;9.98;;;;;;;24.70;13.31;93696.28;5092012;28;20028;-42
2022/03/25 09:40:14;;;;;;;13.52;8.88;;;;;;;24.44;13.13;93695.06;5095141;28;20023;-44
2022/03/25 09:42:40;;;;;;;11.25;8.38;;;;;;;25.23;12.89;93685.97;5112241;28;20514;-43
2022/03/25 09:45:07;;;;;;;18.67;8.45;;;;;;;25.34;12.86;93696.34;5112282;27;20577;-42
2022/03/25 09:47:33;;;;;;;19.77;8.60;;;;;;;25.12;12.56;93689.72;5112508;28;20045;-44
2022/03/25 09:49:59;;;;;;;13.90;8.65;;;;;;;24.67;12.44;93686.97;5112382;28;20024;-42
2022/03/25 09:52:28;;;;;;;10.68;7.80;;;;;;;25.43;12.90;93689.69;5112147;28;20460;-43
2022/03/25 09:54:54;;;;;;;10.38;7.70;;;;;;;25.76;13.29;93683.31;5111092;28;20030;-43
2022/03/25 09:57:19;;;;;;;14.18;7.53;;;;;;;26.03;12.61;93680.16;5091536;28;20020;-44
2022/03/25 09:59:45;;;;;;;11.95;8.80;;;;;;;25.99;12.27;93671.50;5091605;28;20024;-42
2022/03/25 10:02:12;;;;;;;12.68;8.55;;;;;;;24.58;12.24;93667.50;5092100;28;20036;-43
2022/03/25 10:04:37;;;;;;;11.73;7.38;;;;;;;24.95;12.06;93686.84;5091503;28;20326;-44
2022/03/25 10:07:30;;;;;;;12.35;8.20;;;;;;;24.87;11.25;93692.84;5092173;28;20111;-43
2022/03/25 10:10:14;;;;;;;9.32;6.57;;;;;;;23.97;11.55;93678.72;5110114;28;20084;-43
2022/03/25 10:12:42;;;;;;;9.15;6.03;;;;;;;23.94;12.07;93682.09;5091563;28;20386;-43
2022/03/25 10:15:30;;;;;;;12.85;5.47;;;;;;;23.44;11.66;93682.41;5091297;28;20103;-44
2022/03/25 10:17:58;;;;;;;8.73;5.70;;;;;;;23.43;12.37;93684.53;5091529;28;20039;-43
2022/03/25 10:20:29;;;;;;;14.18;8.15;;;;;;;23.44;11.88;93676.78;5091239;28;20112;-44
2022/03/25 10:23:19;;;;;;;11.73;6.07;;;;;;;23.49;11.31;93670.72;5091437;28;20035;-42
2022/03/25 10:25:56;;;;;;;7.88;5.43;;;;;;;23.39;11.06;93670.22;5091369;28;20039;-42
2022/03/25 10:28:24;;;;;;;8.93;5.43;;;;;;;23.24;11.54;93674.38;5091320;28;20133;-43
2022/03/25 10:31:00;;;;;;;11.68;5.88;;;;;;;23.11;11.78;93674.38;5091062;28;20028;-43
2022/03/25 10:33:37;;;;;;;7.53;5.85;;;;;;;23.49;11.08;93670.72;5091018;28;20020;-44
2022/03/25 10:36:07;;;;;;;6.90;5.43;;;;;;;23.76;11.74;93675.56;5090696;28;20071;-44
2022/03/25 10:39:01;;;;;;;11.05;5.32;;;;;;;24.04;11.66;93680.50;5091250;28;20031;-46
2022/03/25 10:41:37;;;;;;;9.00;5.13;;;;;;;24.52;11.24;93672.84;5090619;28;20024;-43
2022/03/25 10:44:03;;;;;;;7.63;4.95;;;;;;;24.38;11.36;93680.69;5090752;28;20028;-46
2022/03/25 10:46:49;;;;;;;11.00;6.82;;;;;;;24.74;10.62;93676.69;5090735;28;20115;-44
2022/03/25 10:49:17;;;;;;;9.02;5.47;;;;;;;23.48;10.43;93682.63;5090421;28;20050;-46
2022/03/25 10:51:45;;;;;;;7.60;5.57;;;;;;;23.28;11.04;93651.34;5090708;28;20024;-43
2022/03/25 10:54:12;;;;;;;13.05;5.30;;;;;;;23.35;11.90;93672.84;5090908;28;20413;-46
2022/03/25 10:56:51;;;;;;;7.65;4.70;;;;;;;23.99;10.63;93683.75;5106149;28;20023;-47
2022/03/25 10:59:29;;;;;;;8.07;5.13;;;;;;;24.37;11.54;93684.84;5110917;28;20069;-43
2022/03/25 11:01:57;;;;;;;5.72;4.30;;;;;;;25.08;10.22;93686.72;5110895;28;20023;-42
2022/03/25 11:04:23;;;;;;;33.67;11.82;;;;;;;24.44;10.30;93698.63;5110870;27;20032;-45
2022/03/25 11:06:49;;;;;;;22.20;12.43;;;;;;;23.79;10.77;93703.25;5110687;28;20416;-47
2022/03/25 11:09:16;;;;;;;22.30;10.32;;;;;;;23.70;11.36;93695.75;5111112;28;20047;-45
2022/03/25 11:11:43;;;;;;;10.80;6.45;;;;;;;23.27;11.60;93690.03;5094112;28;20405;-49
2022/03/25 11:14:09;;;;;;;12.85;7.50;;;;;;;23.04;11.66;93681.09;5090300;28;20023;-44
2022/03/25 11:16:43;;;;;;;7.85;5.45;;;;;;;22.36;11.66;93680.97;5090567;28;20442;-45
2022/03/25 11:19:09;;;;;;;14.57;9.80;;;;;;;22.88;12.64;93683.06;5090559;28;20031;-45
2022/03/25 11:21:39;;;;;;;19.08;11.60;;;;;;;23.01;12.07;93671.78;5090648;28;20405;-45
2022/03/25 11:24:06;;;;;;;11.25;8.20;;;;;;;23.67;12.44;93674.44;5090244;28;20020;-44